createdAt,value
2023-04-06T00:00:13.518Z,101540.59
2023-04-06T00:02:43.743Z,101541.31
2023-04-06T00:05:13.979Z,101536.53
2023-04-06T00:07:44.162Z,101532.63
2023-04-06T00:10:12.670Z,101534.16
2023-04-06T00:12:41.093Z,101531.09
2023-04-06T00:15:10.572Z,101532.63
2023-04-06T00:17:37.992Z,101530.63
2023-04-06T00:20:07.989Z,101529.66
2023-04-06T00:22:37.782Z,101521.94
2023-04-06T00:25:07.262Z,101524.31
2023-04-06T00:27:34.681Z,101517.88
2023-04-06T00:30:06.022Z,101519.66
2023-04-06T00:32:37.431Z,101520.63
2023-04-06T00:35:08.741Z,101523.19
2023-04-06T00:37:38.980Z,101522.00
2023-04-06T00:40:11.015Z,101520.81
2023-04-06T00:42:42.724Z,101516.06
2023-04-06T00:45:13.091Z,101517.59
2023-04-06T00:47:43.548Z,101513.66
2023-04-06T00:50:13.909Z,101521.50
2023-04-06T00:52:42.368Z,101519.44
2023-04-06T00:55:11.283Z,101516.59
2023-04-06T00:57:39.416Z,101517.03
2023-04-06T01:00:08.921Z,101519.41
2023-04-06T01:02:39.147Z,101512.53
2023-04-06T01:05:08.327Z,101517.38
2023-04-06T01:07:35.775Z,101510.47
2023-04-06T01:10:06.083Z,101515.59
2023-04-06T01:12:37.337Z,101513.31
2023-04-06T01:15:09.052Z,101516.84
2023-04-06T01:17:38.221Z,101509.53
2023-04-06T01:20:09.118Z,101505.94
2023-04-06T01:22:39.061Z,101506.19
2023-04-06T01:25:08.904Z,101515.44
2023-04-06T01:27:38.851Z,101505.81
2023-04-06T01:30:09.124Z,101516.13
2023-04-06T01:32:38.866Z,101510.06
2023-04-06T01:35:07.755Z,101506.53
2023-04-06T01:37:35.722Z,101514.09
2023-04-06T01:40:07.554Z,101513.50
2023-04-06T01:42:37.842Z,101515.63
2023-04-06T01:45:08.949Z,101507.06
2023-04-06T01:47:38.868Z,101503.97
2023-04-06T01:50:09.718Z,101509.88
2023-04-06T01:52:39.728Z,101504.03
2023-04-06T01:55:10.940Z,101501.78
2023-04-06T01:57:42.556Z,101502.00
2023-04-06T02:00:12.584Z,101502.47
2023-04-06T02:02:45.695Z,101506.72
2023-04-06T02:05:15.895Z,101502.78
2023-04-06T02:07:50.183Z,101501.56
2023-04-06T02:10:21.632Z,101505.81
2023-04-06T02:12:50.688Z,101508.41
2023-04-06T02:15:22.777Z,101500.88
2023-04-06T02:17:50.806Z,101504.91
2023-04-06T02:20:24.392Z,101510.19
2023-04-06T02:22:53.139Z,101502.94
2023-04-06T02:25:20.930Z,101507.16
2023-04-06T02:27:51.157Z,101507.63
2023-04-06T02:30:21.501Z,101511.84
2023-04-06T02:32:51.487Z,101503.09
2023-04-06T02:35:21.738Z,101504.94
2023-04-06T02:37:51.888Z,101501.63
2023-04-06T02:40:21.955Z,101506.09
2023-04-06T02:42:51.736Z,101502.16
2023-04-06T02:45:21.916Z,101513.47
2023-04-06T02:47:52.315Z,101513.09
2023-04-06T02:50:21.953Z,101507.47
2023-04-06T02:52:53.926Z,101514.44
2023-04-06T02:55:24.223Z,101511.34
2023-04-06T02:57:54.064Z,101509.25
2023-04-06T03:00:24.296Z,101506.38
2023-04-06T03:02:54.513Z,101516.88
2023-04-06T03:05:24.684Z,101510.47
2023-04-06T03:07:54.513Z,101514.44
2023-04-06T03:10:24.369Z,101518.66
2023-04-06T03:12:54.091Z,101511.75
2023-04-06T03:15:23.932Z,101509.50
2023-04-06T03:17:53.835Z,101511.81
2023-04-06T03:20:23.938Z,101519.56
2023-04-06T03:22:53.496Z,101509.16
2023-04-06T03:25:23.455Z,101515.66
2023-04-06T03:27:53.256Z,101516.69
2023-04-06T03:30:23.288Z,101518.59
2023-04-06T03:32:53.409Z,101517.16
2023-04-06T03:35:23.498Z,101520.91
2023-04-06T03:37:53.470Z,101525.72
2023-04-06T03:40:23.185Z,101524.28
2023-04-06T03:42:52.218Z,101521.78
2023-04-06T03:45:20.078Z,101529.31
2023-04-06T03:47:48.559Z,101528.94
2023-04-06T03:50:17.044Z,101530.19
2023-04-06T03:52:45.350Z,101535.25
2023-04-06T03:55:13.855Z,101530.22
2023-04-06T03:57:42.665Z,101543.19
2023-04-06T04:00:12.226Z,101541.56
2023-04-06T04:02:42.484Z,101546.38
2023-04-06T04:05:11.384Z,101541.16
2023-04-06T04:07:39.190Z,101544.06
2023-04-06T04:10:08.460Z,101547.84
2023-04-06T04:12:36.409Z,101541.81
2023-04-06T04:15:05.794Z,101546.63
2023-04-06T04:17:33.396Z,101547.91
2023-04-06T04:20:01.698Z,101550.81
2023-04-06T04:22:30.213Z,101548.09
2023-04-06T04:24:58.564Z,101550.59
2023-04-06T04:27:27.078Z,101556.03
2023-04-06T04:29:55.425Z,101551.44
2023-04-06T04:32:24.088Z,101541.59
2023-04-06T04:34:53.181Z,101552.72
2023-04-06T04:37:21.328Z,101553.53
2023-04-06T04:39:49.271Z,101549.38
2023-04-06T04:42:17.851Z,101558.56
2023-04-06T04:44:46.107Z,101551.47
2023-04-06T04:47:14.611Z,101550.41
2023-04-06T04:49:43.576Z,101549.56
2023-04-06T04:52:12.092Z,101551.22
2023-04-06T04:54:42.222Z,101553.94
2023-04-06T04:57:12.516Z,101552.72
2023-04-06T04:59:42.239Z,101562.31
2023-04-06T05:02:12.437Z,101552.06
2023-04-06T05:04:42.555Z,101554.56
2023-04-06T05:07:12.270Z,101556.38
2023-04-06T05:09:42.432Z,101566.84
2023-04-06T05:12:17.895Z,101561.56
2023-04-06T05:14:48.037Z,101562.59
2023-04-06T05:17:18.144Z,101563.63
2023-04-06T05:19:46.822Z,101560.03
2023-04-06T05:22:17.329Z,101568.97
2023-04-06T05:24:46.403Z,101562.44
2023-04-06T05:27:14.986Z,101561.94
2023-04-06T05:29:43.325Z,101566.09
2023-04-06T05:32:12.346Z,101566.19
2023-04-06T05:34:40.104Z,101573.41
2023-04-06T05:37:08.468Z,101577.09
2023-04-06T05:39:36.925Z,101574.69
2023-04-06T05:42:12.385Z,101584.56
2023-04-06T05:44:42.025Z,101579.81
2023-04-06T05:47:12.191Z,101583.44
2023-04-06T05:49:44.141Z,101583.53
2023-04-06T05:52:13.616Z,101577.63
2023-04-06T05:54:41.907Z,101582.44
2023-04-06T05:57:10.294Z,101579.22
2023-04-06T05:59:39.008Z,101579.28
2023-04-06T06:02:07.561Z,101577.22
2023-04-06T06:04:36.084Z,101583.19
2023-04-06T06:07:04.771Z,101581.69
2023-04-06T06:09:32.349Z,101582.75
2023-04-06T06:12:01.984Z,101585.00
2023-04-06T06:14:32.485Z,101576.56
2023-04-06T06:17:02.230Z,101582.94
2023-04-06T06:19:32.677Z,101579.31
2023-04-06T06:22:03.744Z,101579.09
2023-04-06T06:24:33.430Z,101587.09
2023-04-06T06:27:03.841Z,101582.91
2023-04-06T06:29:33.528Z,101579.84
2023-04-06T06:32:03.542Z,101586.44
2023-04-06T06:34:33.431Z,101583.81
2023-04-06T06:37:03.977Z,101582.75
2023-04-06T06:39:33.802Z,101584.22
2023-04-06T06:42:03.853Z,101581.31
2023-04-06T06:44:33.841Z,101581.38
2023-04-06T06:47:03.730Z,101584.00
2023-04-06T06:49:33.610Z,101591.94
2023-04-06T06:52:03.919Z,101592.06
2023-04-06T06:54:33.820Z,101594.63
2023-04-06T06:57:03.835Z,101594.34
2023-04-06T06:59:33.831Z,101593.00
2023-04-06T07:02:03.784Z,101588.94
2023-04-06T07:04:33.759Z,101591.47
2023-04-06T07:07:04.714Z,101590.38
2023-04-06T07:09:34.523Z,101595.41
2023-04-06T07:12:06.606Z,101598.72
2023-04-06T07:14:35.704Z,101596.50
2023-04-06T07:17:05.582Z,101600.03
2023-04-06T07:19:35.658Z,101601.28
2023-04-06T07:22:05.843Z,101594.28
2023-04-06T07:24:36.037Z,101598.66
2023-04-06T07:27:06.129Z,101599.03
2023-04-06T07:29:36.280Z,101603.97
2023-04-06T07:32:06.262Z,101597.09
2023-04-06T07:34:36.477Z,101598.03
2023-04-06T07:37:06.390Z,101596.22
2023-04-06T07:39:36.205Z,101593.25
2023-04-06T07:42:11.929Z,101597.66
2023-04-06T07:44:41.241Z,101593.34
2023-04-06T07:47:08.479Z,101600.00
2023-04-06T07:49:38.369Z,101592.41
2023-04-06T07:52:08.048Z,101595.50
2023-04-06T07:54:38.016Z,101599.00
2023-04-06T07:57:07.867Z,101590.69
2023-04-06T07:59:37.957Z,101601.34
2023-04-06T08:02:08.265Z,101595.38
2023-04-06T08:04:38.209Z,101592.78
2023-04-06T08:07:08.021Z,101592.78
2023-04-06T08:09:38.404Z,101588.59
2023-04-06T08:12:14.363Z,101589.59
2023-04-06T08:14:42.511Z,101585.75
2023-04-06T08:17:09.829Z,101591.88
2023-04-06T08:19:39.705Z,101594.75
2023-04-06T08:22:09.456Z,101594.66
2023-04-06T08:24:39.365Z,101592.66
2023-04-06T08:27:09.285Z,101593.63
2023-04-06T08:29:38.940Z,101593.47
2023-04-06T08:32:08.813Z,101592.00
2023-04-06T08:34:39.004Z,101593.25
2023-04-06T08:37:08.794Z,101588.91
2023-04-06T08:39:38.588Z,101590.06
2023-04-06T08:42:22.291Z,101593.72
2023-04-06T08:44:53.535Z,101591.47
2023-04-06T08:47:24.970Z,101587.84
2023-04-06T08:49:57.762Z,101588.47
2023-04-06T08:52:29.658Z,101582.13
2023-04-06T08:54:57.609Z,101589.00
2023-04-06T08:57:28.639Z,101587.22
2023-04-06T09:00:02.190Z,101588.25
2023-04-06T09:02:34.150Z,101588.34
2023-04-06T09:05:05.921Z,101583.72
2023-04-06T09:07:37.340Z,101591.47
2023-04-06T09:10:08.800Z,101588.44
2023-04-06T09:12:39.104Z,101595.69
2023-04-06T09:15:24.704Z,101591.44
2023-04-06T09:17:55.868Z,101578.22
2023-04-06T09:20:29.283Z,101574.19
2023-04-06T09:22:59.894Z,101580.91
2023-04-06T09:25:31.234Z,101576.97
2023-04-06T09:28:08.244Z,101576.41
2023-04-06T09:30:37.110Z,101575.19
2023-04-06T09:33:06.552Z,101574.72
2023-04-06T09:35:34.241Z,101567.06
2023-04-06T09:38:13.349Z,101571.53
2023-04-06T09:43:31.276Z,101573.75
2023-04-06T09:46:05.140Z,101568.97
2023-04-06T09:48:37.455Z,101568.59
2023-04-06T09:51:16.496Z,101560.88
2023-04-06T09:53:56.229Z,101551.13
2023-04-06T09:56:45.625Z,101547.44
2023-04-06T09:59:46.607Z,101553.44
2023-04-06T10:02:56.959Z,101550.44
2023-04-06T10:05:50.482Z,101543.41
2023-04-06T10:08:31.764Z,101542.75
2023-04-06T10:11:04.345Z,101549.06
2023-04-06T10:13:35.163Z,101543.97
2023-04-06T10:16:07.608Z,101544.66
2023-04-06T10:18:47.753Z,101534.75
2023-04-06T10:21:27.728Z,101541.59
2023-04-06T10:24:03.646Z,101530.22
2023-04-06T10:26:32.690Z,101544.84
2023-04-06T10:29:06.400Z,101547.53
2023-04-06T10:31:34.039Z,101541.44
2023-04-06T10:34:05.393Z,101539.69
2023-04-06T10:36:36.058Z,101543.94
2023-04-06T10:39:07.782Z,101534.41
2023-04-06T10:41:49.319Z,101540.78
2023-04-06T10:44:25.180Z,101543.31
2023-04-06T10:46:58.301Z,101543.13
2023-04-06T10:49:27.748Z,101534.38
2023-04-06T10:51:59.213Z,101534.84
2023-04-06T10:54:29.759Z,101534.53
2023-04-06T10:56:59.074Z,101527.66
2023-04-06T10:59:30.974Z,101537.41
2023-04-06T11:01:59.713Z,101528.34
2023-04-06T11:04:29.978Z,101526.69
2023-04-06T11:07:00.334Z,101521.63
2023-04-06T11:09:36.362Z,101527.22
2023-04-06T11:12:10.004Z,101528.47
2023-04-06T11:14:40.718Z,101521.72
2023-04-06T11:17:10.996Z,101512.50
2023-04-06T11:19:41.331Z,101510.69
2023-04-06T11:22:11.516Z,101509.25
2023-04-06T11:24:41.678Z,101507.97
2023-04-06T11:27:10.069Z,101497.06
2023-04-06T11:29:42.004Z,101501.41
2023-04-06T11:32:11.394Z,101493.09
2023-04-06T11:34:42.171Z,101495.63
2023-04-06T11:37:13.766Z,101497.41
2023-04-06T11:39:53.334Z,101483.44
2023-04-06T11:42:30.789Z,101493.03
2023-04-06T11:45:01.795Z,101491.34
2023-04-06T11:47:38.882Z,101490.50
2023-04-06T11:50:17.062Z,101484.16
2023-04-06T11:52:46.689Z,101488.16
2023-04-06T11:55:20.044Z,101482.09
2023-04-06T11:57:50.399Z,101482.19
2023-04-06T12:00:19.782Z,101480.44
2023-04-06T12:02:51.227Z,101470.56
2023-04-06T12:05:21.255Z,101476.00
2023-04-06T12:07:49.517Z,101474.16
2023-04-06T12:10:17.923Z,101470.97
2023-04-06T12:12:46.366Z,101463.59
2023-04-06T12:15:14.789Z,101461.34
2023-04-06T12:17:43.214Z,101466.88
2023-04-06T12:20:24.701Z,101466.22
2023-04-06T12:22:54.993Z,101466.34
2023-04-06T12:25:23.330Z,101468.72
2023-04-06T12:27:51.821Z,101461.56
2023-04-06T12:30:20.683Z,101464.47
2023-04-06T12:32:51.069Z,101464.47
2023-04-06T12:35:20.047Z,101457.13
2023-04-06T12:37:48.559Z,101459.19
2023-04-06T12:40:17.070Z,101454.06
2023-04-06T12:42:46.884Z,101458.31
2023-04-06T12:45:17.193Z,101452.94
2023-04-06T12:47:47.106Z,101455.59
2023-04-06T12:50:17.021Z,101447.84
2023-04-06T12:52:48.355Z,101442.47
2023-04-06T12:55:17.124Z,101445.06
2023-04-06T12:57:46.854Z,101455.69
2023-04-06T13:00:17.733Z,101441.56
2023-04-06T13:02:48.455Z,101443.28
2023-04-06T13:05:20.048Z,101437.81
2023-04-06T13:07:49.184Z,101435.38
2023-04-06T13:10:19.000Z,101443.78
2023-04-06T13:12:48.861Z,101441.22
2023-04-06T13:15:18.789Z,101439.25
2023-04-06T13:17:48.505Z,101438.75
2023-04-06T13:20:18.901Z,101434.63
2023-04-06T13:22:48.729Z,101431.41
2023-04-06T13:25:18.658Z,101424.13
2023-04-06T13:27:49.841Z,101419.50
2023-04-06T13:30:19.277Z,101421.50
2023-04-06T13:32:49.176Z,101419.56
2023-04-06T13:35:19.927Z,101415.38
2023-04-06T13:37:49.838Z,101415.84
2023-04-06T13:40:21.902Z,101419.66
2023-04-06T13:42:51.748Z,101418.50
2023-04-06T13:45:21.807Z,101411.28
2023-04-06T13:47:52.053Z,101414.91
2023-04-06T13:50:22.206Z,101408.31
2023-04-06T13:52:52.008Z,101402.69
2023-04-06T13:55:22.456Z,101405.25
2023-04-06T13:57:52.900Z,101403.91
2023-04-06T14:00:23.051Z,101402.41
2023-04-06T14:02:56.546Z,101403.72
2023-04-06T14:05:25.619Z,101406.75
2023-04-06T14:07:55.704Z,101393.63
2023-04-06T14:10:28.819Z,101403.53
2023-04-06T14:12:59.289Z,101399.50
2023-04-06T14:15:29.996Z,101402.75
2023-04-06T14:17:59.189Z,101402.84
2023-04-06T14:20:29.494Z,101399.69
2023-04-06T14:23:05.229Z,101399.16
2023-04-06T14:25:35.941Z,101397.50
2023-04-06T14:28:05.521Z,101403.81
2023-04-06T14:30:32.735Z,101397.19
2023-04-06T14:33:02.662Z,101393.91
2023-04-06T14:35:33.671Z,101396.72
2023-04-06T14:38:03.072Z,101395.59
2023-04-06T14:40:38.200Z,101398.75
2023-04-06T14:43:06.046Z,101404.66
2023-04-06T14:45:37.886Z,101403.75
2023-04-06T14:48:08.081Z,101396.47
2023-04-06T14:50:37.465Z,101393.28
2023-04-06T14:53:07.753Z,101392.84
2023-04-06T14:55:42.503Z,101394.84
2023-04-06T14:58:12.282Z,101392.56
2023-04-06T15:00:40.711Z,101390.44
2023-04-06T15:03:09.419Z,101388.13
2023-04-06T15:05:37.698Z,101388.47
2023-04-06T15:08:06.798Z,101378.88
2023-04-06T15:10:35.295Z,101388.56
2023-04-06T15:13:04.374Z,101394.84
2023-04-06T15:15:34.354Z,101386.69
2023-04-06T15:18:03.636Z,101390.16
2023-04-06T15:20:31.896Z,101387.16
2023-04-06T15:22:59.665Z,101384.88
2023-04-06T15:25:28.171Z,101386.09
2023-04-06T15:27:57.755Z,101378.47
2023-04-06T15:30:28.246Z,101385.19
2023-04-06T15:33:02.679Z,101383.53
2023-04-06T15:35:35.326Z,101376.09
2023-04-06T15:38:05.963Z,101372.72
2023-04-06T15:40:45.743Z,101380.16
2023-04-06T15:43:18.481Z,101375.84
2023-04-06T15:45:47.298Z,101369.06
2023-04-06T15:48:15.697Z,101370.09
2023-04-06T15:50:44.174Z,101368.56
2023-04-06T15:53:12.969Z,101373.38
2023-04-06T15:55:40.991Z,101368.81
2023-04-06T15:58:09.395Z,101369.25
2023-04-06T16:00:37.843Z,101371.13
2023-04-06T16:03:06.615Z,101373.78
2023-04-06T16:05:39.801Z,101376.06
2023-04-06T16:08:19.508Z,101380.78
2023-04-06T16:10:49.967Z,101378.25
2023-04-06T16:13:21.609Z,101380.44
2023-04-06T16:15:53.111Z,101381.75
2023-04-06T16:18:22.395Z,101382.06
2023-04-06T16:20:52.224Z,101379.09
2023-04-06T16:23:22.403Z,101379.81
2023-04-06T16:25:54.380Z,101375.63
2023-04-06T16:28:23.635Z,101379.63
2023-04-06T16:30:53.827Z,101376.34
2023-04-06T16:33:24.133Z,101375.91
2023-04-06T16:35:54.253Z,101378.06
2023-04-06T16:38:25.337Z,101379.78
2023-04-06T16:41:05.060Z,101373.72
2023-04-06T16:43:35.146Z,101375.50
2023-04-06T16:46:05.215Z,101376.28
2023-04-06T16:48:35.153Z,101379.81
2023-04-06T16:51:09.933Z,101374.44
2023-04-06T16:53:39.466Z,101373.09
2023-04-06T16:59:00.097Z,101376.63
2023-04-06T17:01:30.951Z,101379.56
2023-04-06T17:04:02.154Z,101380.91
2023-04-06T17:06:32.678Z,101378.47
2023-04-06T17:09:02.887Z,101372.91
2023-04-06T17:11:43.720Z,101384.22
2023-04-06T17:14:14.235Z,101391.31
2023-04-06T17:16:42.548Z,101384.81
2023-04-06T17:19:12.551Z,101379.50
2023-04-06T17:21:42.222Z,101381.00
2023-04-06T17:24:12.413Z,101372.19
2023-04-06T17:26:42.628Z,101378.59
2023-04-06T17:29:12.707Z,101379.56
2023-04-06T17:31:46.483Z,101373.97
2023-04-06T17:34:14.317Z,101387.97
2023-04-06T17:36:42.656Z,101390.59
2023-04-06T17:39:12.056Z,101386.41
2023-04-06T17:41:40.352Z,101393.75
2023-04-06T17:44:08.000Z,101392.50
2023-04-06T17:46:36.572Z,101404.25
2023-04-06T17:49:08.533Z,101391.44
2023-04-06T17:51:38.966Z,101395.75
2023-04-06T17:54:09.072Z,101399.91
2023-04-06T17:56:39.287Z,101403.91
2023-04-06T17:59:11.655Z,101400.06
2023-04-06T18:01:41.982Z,101405.03
2023-04-06T18:04:10.439Z,101407.31
2023-04-06T18:06:38.747Z,101406.25
2023-04-06T18:09:07.159Z,101414.56
2023-04-06T18:11:35.691Z,101408.81
2023-04-06T18:14:09.029Z,101409.38
2023-04-06T18:16:41.025Z,101407.72
2023-04-06T18:19:11.540Z,101418.75
2023-04-06T18:21:42.102Z,101417.66
2023-04-06T18:24:15.185Z,101417.41
2023-04-06T18:26:53.255Z,101415.75
2023-04-06T18:29:23.509Z,101430.31
2023-04-06T18:31:55.368Z,101426.75
2023-04-06T18:34:25.799Z,101432.50
2023-04-06T18:36:56.327Z,101427.25
2023-04-06T18:39:27.409Z,101433.56
2023-04-06T18:41:58.635Z,101424.19
2023-04-06T18:44:29.617Z,101416.97
2023-04-06T18:47:00.321Z,101428.53
2023-04-06T18:49:31.080Z,101437.31
2023-04-06T18:52:01.883Z,101428.50
2023-04-06T18:54:32.133Z,101437.81
2023-04-06T18:57:02.391Z,101437.00
2023-04-06T18:59:32.683Z,101436.44
2023-04-06T19:02:02.928Z,101437.25
2023-04-06T19:04:33.351Z,101439.44
2023-04-06T19:07:03.692Z,101437.50
2023-04-06T19:09:34.055Z,101444.88
2023-04-06T19:12:04.397Z,101447.88
2023-04-06T19:14:34.894Z,101442.63
2023-04-06T19:17:05.080Z,101446.19
2023-04-06T19:19:35.430Z,101445.56
2023-04-06T19:22:05.562Z,101439.56
2023-04-06T19:24:35.885Z,101442.50
2023-04-06T19:27:06.091Z,101443.88
2023-04-06T19:29:38.858Z,101443.28
2023-04-06T19:32:11.870Z,101438.28
2023-04-06T19:34:42.239Z,101444.69
2023-04-06T19:37:12.444Z,101447.41
2023-04-06T19:39:46.028Z,101437.75
2023-04-06T19:42:21.908Z,101444.09
2023-04-06T19:44:53.646Z,101439.25
2023-04-06T19:47:24.087Z,101437.47
2023-04-06T19:49:54.218Z,101436.28
2023-04-06T19:52:28.939Z,101435.91
2023-04-06T19:55:00.458Z,101436.09
2023-04-06T19:57:28.207Z,101433.53
2023-04-06T20:00:00.016Z,101430.94
2023-04-06T20:02:28.172Z,101438.28
2023-04-06T20:04:59.055Z,101433.88
2023-04-06T20:07:29.224Z,101432.41
2023-04-06T20:09:59.479Z,101434.25
2023-04-06T20:12:27.833Z,101444.63
2023-04-06T20:14:57.392Z,101443.97
2023-04-06T20:17:24.995Z,101439.81
2023-04-06T20:19:54.520Z,101441.66
2023-04-06T20:22:24.632Z,101442.94
2023-04-06T20:24:53.107Z,101441.47
2023-04-06T20:27:21.434Z,101445.00
2023-04-06T20:29:50.048Z,101448.22
2023-04-06T20:32:21.099Z,101449.81
2023-04-06T20:34:51.409Z,101443.69
2023-04-06T20:37:21.666Z,101449.44
2023-04-06T20:39:52.404Z,101437.59
2023-04-06T20:42:24.043Z,101443.81
2023-04-06T20:44:54.100Z,101440.19
2023-04-06T20:47:22.819Z,101439.63
2023-04-06T20:49:50.946Z,101437.63
2023-04-06T20:52:19.350Z,101448.25
2023-04-06T20:54:48.660Z,101438.66
2023-04-06T20:57:16.384Z,101439.38
2023-04-06T20:59:45.421Z,101439.84
2023-04-06T21:02:13.704Z,101441.31
2023-04-06T21:04:45.441Z,101436.84
2023-04-06T21:07:18.893Z,101437.03
2023-04-06T21:09:49.018Z,101436.69
2023-04-06T21:12:19.792Z,101432.53
2023-04-06T21:14:49.996Z,101436.03
2023-04-06T21:17:20.197Z,101431.56
2023-04-06T21:19:50.737Z,101436.63
2023-04-06T21:22:20.871Z,101431.56
2023-04-06T21:24:51.056Z,101431.97
2023-04-06T21:27:21.199Z,101432.13
2023-04-06T21:29:51.525Z,101425.75
2023-04-06T21:32:21.753Z,101436.59
2023-04-06T21:34:51.928Z,101425.81
2023-04-06T21:37:22.320Z,101433.34
2023-04-06T21:39:52.444Z,101427.19
2023-04-06T21:42:23.034Z,101429.00
2023-04-06T21:44:53.411Z,101436.88
2023-04-06T21:47:23.672Z,101426.41
2023-04-06T21:49:53.934Z,101430.69
2023-04-06T21:52:24.132Z,101429.53
2023-04-06T21:54:54.308Z,101429.19
2023-04-06T21:57:24.574Z,101425.28
2023-04-06T21:59:54.796Z,101420.78
2023-04-06T22:02:25.602Z,101418.78
2023-04-06T22:04:56.282Z,101417.63
2023-04-06T22:07:26.698Z,101415.63
2023-04-06T22:09:59.086Z,101421.56
2023-04-06T22:12:29.586Z,101414.69
2023-04-06T22:15:00.148Z,101416.00
2023-04-06T22:17:31.780Z,101417.06
2023-04-06T22:20:01.944Z,101412.91
2023-04-06T22:22:32.155Z,101413.13
2023-04-06T22:25:02.750Z,101405.22
2023-04-06T22:27:32.964Z,101412.56
2023-04-06T22:30:04.903Z,101417.44
2023-04-06T22:32:32.578Z,101414.97
2023-04-06T22:35:02.973Z,101416.00
2023-04-06T22:37:33.790Z,101421.72
2023-04-06T22:40:04.374Z,101411.88
2023-04-06T22:42:34.502Z,101405.81
2023-04-06T22:45:05.862Z,101414.25
2023-04-06T22:47:36.721Z,101408.19
2023-04-06T22:50:09.099Z,101404.63
2023-04-06T22:52:39.283Z,101409.28
2023-04-06T22:55:09.635Z,101403.81
2023-04-06T22:57:39.731Z,101406.53
2023-04-06T23:00:11.214Z,101405.94
2023-04-06T23:02:41.518Z,101408.69
2023-04-06T23:05:12.049Z,101402.41
2023-04-06T23:07:42.236Z,101404.53
2023-04-06T23:10:12.387Z,101400.38
2023-04-06T23:12:42.506Z,101405.00
2023-04-06T23:15:13.132Z,101398.13
2023-04-06T23:17:43.299Z,101404.66
2023-04-06T23:20:13.477Z,101402.19
2023-04-06T23:22:41.948Z,101402.41
2023-04-06T23:25:10.594Z,101399.31
2023-04-06T23:27:38.794Z,101394.94
2023-04-06T23:30:08.975Z,101403.59
2023-04-06T23:32:38.760Z,101399.44
2023-04-06T23:35:08.168Z,101398.84
2023-04-06T23:37:35.680Z,101395.53
2023-04-06T23:40:04.789Z,101395.19
2023-04-06T23:42:32.598Z,101395.66
2023-04-06T23:45:03.697Z,101390.69
2023-04-06T23:47:34.045Z,101394.97
2023-04-06T23:50:04.775Z,101390.22
2023-04-06T23:52:34.948Z,101394.22
2023-04-06T23:55:05.918Z,101391.41
2023-04-06T23:57:36.152Z,101390.22
